Portada
METAR-TAF:

METAR-TAF

Aeroports :

Istanbul, Turquia

latitud: 41-16-31N, longitud: 028-45-07E, altitud: 99 m

Observació

L'informe es va fer fa 17 minuts, a les 12:20 UTC
Vent 14 kt del Nord-Est
Temperatura 25°C
Humitat 54%
Pressió 1009 hPa
Visibilitat 10 km o més
Núvols disperses a una alçada de 3000 ft

METAR: LTFM 161220Z 05014KT 9999 SCT030 25/15 Q1009 NOSIG

Hora: 15:37 (12:37 UTC)

Pronòstic

L'informe es va fer fa 1 hora i 57 minuts, a les 10:40 UTC
Pronòstic vàlid del 16 a les 12 UTC al 17 a les 18 UTC
Vent 15 kt del Nord/Nord-Est
Visibilitat 10 km o més
Escasses núvols a una alçada de 3000 ft
Cel ennuvolat a una alçada de 10000 ft
Temporalment
l' 17 a les 07 UTC al 17 a les 11 UTC
Escasses núvols a una alçada de 1700 ft, Cumulonimbus.
Cel ennuvolat a una alçada de 2500 ft
xàfecs de pluja

TAF: LTFM 161040Z 1612/1718 03015KT 9999 FEW030 BKN100 TEMPO 1707/1711 -SHRA FEW017CB BKN025

Observacions i pronòstics meteorològics de més de 4000 aeroports (METAR i TAF).

Les estacions disponibles són els punts grocs i vermells al mapa.

Posi el ratolí al punt desitjat per veure el nom de l'estació.

Feu clic per veure les observacions i els pronòstics meteorològics.

Per canviar el mapa: feu clic els botons verds amb una creu de color negre per apropar; al botó verd amb un guió per allunyar la imatge; o en les fletxes verdes per a mapes adjacents.


METAR-TAF: